createdAt,value
2022-08-28T00:02:05.989Z,11.40
2022-08-28T00:04:33.170Z,9.00
2022-08-28T00:07:01.437Z,8.90
2022-08-28T00:09:28.776Z,9.47
2022-08-28T00:11:57.061Z,8.43
2022-08-28T00:14:24.879Z,9.07
2022-08-28T00:16:52.721Z,9.90
2022-08-28T00:19:21.422Z,9.80
2022-08-28T00:21:48.757Z,9.17
2022-08-28T00:24:18.299Z,9.80
2022-08-28T00:27:04.423Z,11.23
2022-08-28T00:29:32.433Z,9.27
2022-08-28T00:32:00.606Z,9.07
2022-08-28T00:34:33.524Z,11.03
2022-08-28T00:37:01.380Z,11.80
2022-08-28T00:39:28.756Z,9.77
2022-08-28T00:41:57.936Z,9.83
2022-08-28T00:44:30.188Z,9.60
2022-08-28T00:46:59.564Z,9.67
2022-08-28T00:49:33.811Z,9.77
2022-08-28T00:52:06.101Z,9.03
2022-08-28T00:54:36.809Z,8.03
2022-08-28T00:57:09.066Z,8.17
2022-08-28T00:59:37.775Z,8.20
2022-08-28T01:02:09.270Z,8.73
2022-08-28T01:04:36.983Z,8.67
2022-08-28T01:07:08.386Z,8.63
2022-08-28T01:09:40.312Z,9.57
2022-08-28T01:12:21.151Z,8.40
2022-08-28T01:14:51.642Z,7.90
2022-08-28T01:17:23.832Z,8.30
2022-08-28T01:19:57.611Z,8.87
2022-08-28T01:22:29.559Z,8.57
2022-08-28T01:25:01.107Z,7.30
2022-08-28T01:27:28.430Z,8.03
2022-08-28T01:29:56.357Z,7.03
2022-08-28T01:32:34.526Z,7.47
2022-08-28T01:35:02.527Z,7.53
2022-08-28T01:37:29.778Z,8.60
2022-08-28T01:39:57.025Z,6.67
2022-08-28T01:42:25.139Z,7.70
2022-08-28T01:44:54.354Z,6.30
2022-08-28T01:47:22.581Z,7.20
2022-08-28T01:49:49.809Z,8.83
2022-08-28T01:52:16.857Z,7.67
2022-08-28T01:54:43.993Z,9.13
2022-08-28T01:57:11.242Z,7.50
2022-08-28T01:59:38.486Z,8.70
2022-08-28T02:02:10.883Z,9.07
2022-08-28T02:04:38.708Z,8.07
2022-08-28T02:07:06.741Z,7.50
2022-08-28T02:09:33.919Z,6.90
2022-08-28T02:12:00.994Z,7.43
2022-08-28T02:14:30.246Z,7.07
2022-08-28T02:16:57.603Z,7.87
2022-08-28T02:19:25.282Z,6.43
2022-08-28T02:21:52.325Z,6.87
2022-08-28T02:24:20.511Z,9.03
2022-08-28T02:26:47.543Z,6.93
2022-08-28T02:29:14.811Z,7.93
2022-08-28T02:31:42.228Z,7.93
2022-08-28T02:34:11.326Z,8.27
2022-08-28T02:36:41.948Z,9.33
2022-08-28T02:39:09.225Z,8.50
2022-08-28T02:41:36.362Z,9.53
2022-08-28T02:44:05.285Z,8.23
2022-08-28T02:46:33.273Z,8.37
2022-08-28T02:49:00.510Z,9.73
2022-08-28T02:51:33.152Z,10.10
2022-08-28T02:54:01.412Z,9.13
2022-08-28T02:56:28.849Z,9.57
2022-08-28T02:58:56.586Z,8.03
2022-08-28T03:01:24.538Z,9.43
2022-08-28T03:03:51.771Z,8.33
2022-08-28T03:06:18.880Z,9.90
2022-08-28T03:08:46.180Z,8.80
2022-08-28T03:11:13.383Z,7.57
2022-08-28T03:13:40.696Z,9.37
2022-08-28T03:16:08.704Z,9.70
2022-08-28T03:18:35.880Z,8.70
2022-08-28T03:21:04.029Z,7.97
2022-08-28T03:23:32.119Z,8.37
2022-08-28T03:26:05.122Z,8.30
2022-08-28T03:28:38.529Z,9.03
2022-08-28T03:31:10.484Z,7.57
2022-08-28T03:33:38.561Z,7.07
2022-08-28T03:36:16.699Z,8.20
2022-08-28T03:38:44.663Z,9.47
2022-08-28T03:41:18.151Z,7.67
2022-08-28T03:43:46.164Z,7.20
2022-08-28T03:46:17.116Z,10.63
2022-08-28T03:48:45.228Z,10.03
2022-08-28T03:51:15.311Z,11.27
2022-08-28T03:53:43.089Z,8.23
2022-08-28T03:56:13.628Z,8.07
2022-08-28T03:58:41.502Z,11.70
2022-08-28T04:01:09.741Z,8.00
2022-08-28T04:03:37.260Z,8.33
2022-08-28T04:06:04.917Z,8.13
2022-08-28T04:08:32.112Z,7.63
2022-08-28T04:11:01.036Z,6.63
2022-08-28T04:13:29.166Z,8.10
2022-08-28T04:16:10.893Z,8.93
2022-08-28T04:18:43.289Z,8.20
2022-08-28T04:21:17.433Z,6.80
2022-08-28T04:23:45.900Z,7.67
2022-08-28T04:26:16.851Z,9.30
2022-08-28T04:28:44.425Z,7.53
2022-08-28T04:31:12.580Z,8.00
2022-08-28T04:33:40.522Z,8.60
2022-08-28T04:36:13.754Z,7.70
2022-08-28T04:38:44.057Z,8.30
2022-08-28T04:41:13.906Z,7.33
2022-08-28T04:43:42.532Z,8.60
2022-08-28T04:46:14.262Z,7.57
2022-08-28T04:48:42.821Z,8.90
2022-08-28T04:51:12.578Z,7.87
2022-08-28T04:53:41.971Z,7.33
2022-08-28T04:56:12.026Z,7.77
2022-08-28T04:58:40.176Z,7.37
2022-08-28T05:01:11.427Z,7.27
2022-08-28T05:03:40.128Z,8.93
2022-08-28T05:06:08.131Z,8.07
2022-08-28T05:08:35.741Z,7.93
2022-08-28T05:11:33.186Z,11.00
2022-08-28T05:14:01.379Z,7.17
2022-08-28T05:16:29.268Z,7.60
2022-08-28T05:19:03.114Z,7.23
2022-08-28T05:21:30.261Z,7.10
2022-08-28T05:23:58.183Z,8.23
2022-08-28T05:26:26.762Z,7.20
2022-08-28T05:28:56.499Z,8.43
2022-08-28T05:31:24.767Z,7.57
2022-08-28T05:33:52.996Z,7.67
2022-08-28T05:36:22.959Z,7.47
2022-08-28T05:38:56.675Z,7.33
2022-08-28T05:41:27.074Z,7.00
2022-08-28T05:43:54.353Z,6.57
2022-08-28T05:46:23.409Z,8.13
2022-08-28T05:48:50.558Z,7.60
2022-08-28T05:51:22.366Z,8.63
2022-08-28T05:53:50.758Z,8.03
2022-08-28T05:56:20.956Z,7.23
2022-08-28T05:58:48.157Z,6.20
2022-08-28T06:01:16.962Z,6.23
2022-08-28T06:03:47.674Z,7.23
2022-08-28T06:06:14.901Z,6.77
2022-08-28T06:08:56.327Z,7.20
2022-08-28T06:11:29.609Z,8.17
2022-08-28T06:14:02.512Z,6.37
2022-08-28T06:16:32.431Z,7.03
2022-08-28T06:19:00.791Z,6.07
2022-08-28T06:21:28.917Z,6.93
2022-08-28T06:23:56.607Z,7.57
2022-08-28T06:26:23.975Z,7.57
2022-08-28T06:28:52.737Z,6.23
2022-08-28T06:31:24.732Z,5.73
2022-08-28T06:33:54.919Z,5.73
2022-08-28T06:36:23.006Z,5.30
2022-08-28T06:38:50.791Z,5.50
2022-08-28T06:41:18.563Z,5.17
2022-08-28T06:43:45.754Z,7.33
2022-08-28T06:46:13.285Z,4.93
2022-08-28T06:48:40.761Z,4.73
2022-08-28T06:51:09.851Z,10.13
2022-08-28T06:53:38.822Z,7.63
2022-08-28T06:56:09.574Z,6.93
2022-08-28T06:58:39.429Z,5.67
2022-08-28T07:01:17.642Z,6.27
2022-08-28T07:03:46.042Z,7.83
2022-08-28T07:06:14.935Z,6.50
2022-08-28T07:08:44.050Z,5.07
2022-08-28T07:11:28.577Z,6.00
2022-08-28T07:13:57.785Z,5.30
2022-08-28T07:16:28.540Z,5.53
2022-08-28T07:18:56.039Z,6.13
2022-08-28T07:21:23.234Z,5.77
2022-08-28T07:23:51.069Z,6.27
2022-08-28T07:26:22.721Z,7.47
2022-08-28T07:28:51.418Z,6.20
2022-08-28T07:31:26.303Z,4.87
2022-08-28T07:33:55.235Z,6.93
2022-08-28T07:36:29.079Z,5.50
2022-08-28T07:38:59.211Z,6.37
2022-08-28T07:41:31.595Z,5.23
2022-08-28T07:44:18.056Z,6.67
2022-08-28T07:46:46.069Z,5.10
2022-08-28T07:49:15.734Z,3.80
2022-08-28T07:51:42.963Z,4.97
2022-08-28T07:54:18.269Z,6.77
2022-08-28T07:56:46.946Z,5.60
2022-08-28T07:59:19.176Z,5.70
2022-08-28T08:01:50.885Z,5.03
2022-08-28T08:04:20.272Z,5.90
2022-08-28T08:06:48.498Z,3.63
2022-08-28T08:09:18.539Z,5.57
2022-08-28T08:11:47.184Z,6.20
2022-08-28T08:14:17.091Z,6.70
2022-08-28T08:16:46.473Z,5.87
2022-08-28T08:19:14.820Z,4.77
2022-08-28T08:21:53.295Z,4.00
2022-08-28T08:24:26.950Z,4.87
2022-08-28T08:27:00.287Z,4.17
2022-08-28T08:29:36.128Z,6.30
2022-08-28T08:32:07.315Z,4.70
2022-08-28T08:34:38.886Z,7.13
2022-08-28T08:37:06.862Z,5.20
2022-08-28T08:39:35.790Z,5.27
2022-08-28T08:42:07.114Z,6.47
2022-08-28T08:44:41.380Z,5.23
2022-08-28T08:47:14.634Z,6.60
2022-08-28T08:49:57.880Z,7.40
2022-08-28T08:53:04.717Z,5.37
2022-08-28T08:55:43.205Z,4.43
2022-08-28T08:58:28.750Z,4.33
2022-08-28T09:01:08.860Z,4.37
2022-08-28T09:03:55.873Z,4.80
2022-08-28T09:06:45.099Z,4.27
2022-08-28T09:09:29.550Z,4.13
2022-08-28T09:12:05.119Z,6.40
2022-08-28T09:15:06.160Z,4.50
2022-08-28T09:17:41.703Z,4.60
2022-08-28T09:20:13.615Z,4.63
2022-08-28T09:22:46.744Z,4.27
2022-08-28T09:25:45.479Z,4.23
2022-08-28T09:28:22.963Z,3.53
2022-08-28T09:31:07.801Z,3.50
2022-08-28T09:33:45.160Z,6.03
2022-08-28T09:36:31.820Z,6.43
2022-08-28T09:39:07.489Z,4.57
2022-08-28T09:42:19.387Z,6.13
2022-08-28T09:45:09.445Z,6.30
2022-08-28T09:47:49.085Z,5.97
2022-08-28T09:50:22.508Z,3.93
2022-08-28T09:52:50.700Z,3.20
2022-08-28T09:55:37.479Z,5.43
2022-08-28T09:58:05.872Z,6.07
2022-08-28T10:00:37.714Z,4.10
2022-08-28T10:03:16.367Z,3.87
2022-08-28T10:06:14.516Z,3.40
2022-08-28T10:09:09.478Z,3.10
2022-08-28T10:11:36.676Z,6.37
2022-08-28T10:14:37.449Z,4.57
2022-08-28T10:17:22.052Z,3.07
2022-08-28T10:20:04.919Z,5.90
2022-08-28T10:22:44.101Z,3.10
2022-08-28T10:25:23.891Z,5.57
2022-08-28T10:28:13.923Z,4.20
2022-08-28T10:30:54.236Z,2.77
2022-08-28T10:33:41.255Z,5.20
2022-08-28T10:36:34.179Z,4.33
2022-08-28T10:39:22.523Z,5.20
2022-08-28T10:41:57.021Z,3.70
2022-08-28T10:44:33.780Z,4.67
2022-08-28T10:47:03.754Z,2.60
2022-08-28T10:49:47.452Z,4.23
2022-08-28T10:52:28.005Z,3.10
2022-08-28T10:55:03.486Z,4.27
2022-08-28T10:57:45.430Z,2.77
2022-08-28T11:00:18.321Z,3.33
2022-08-28T11:02:50.528Z,4.70
2022-08-28T11:05:27.727Z,5.67
2022-08-28T11:07:59.284Z,4.57
2022-08-28T11:10:29.976Z,3.77
2022-08-28T11:13:00.026Z,2.93
2022-08-28T11:15:36.176Z,5.87
2022-08-28T11:18:16.402Z,4.13
2022-08-28T11:21:16.330Z,3.40
2022-08-28T11:23:53.360Z,4.27
2022-08-28T11:26:35.033Z,4.33
2022-08-28T11:29:03.444Z,3.73
2022-08-28T11:31:34.785Z,5.80
2022-08-28T11:34:03.164Z,6.50
2022-08-28T11:36:32.754Z,3.63
2022-08-28T11:39:04.496Z,4.17
2022-08-28T11:41:36.851Z,3.90
2022-08-28T11:44:11.558Z,2.50
2022-08-28T11:46:41.132Z,5.10
2022-08-28T11:49:24.798Z,4.83
2022-08-28T11:51:55.072Z,4.67
2022-08-28T11:54:38.312Z,3.47
2022-08-28T11:57:22.660Z,4.17
2022-08-28T12:00:10.997Z,3.63
2022-08-28T12:02:40.895Z,4.50
2022-08-28T12:05:32.348Z,3.93
2022-08-28T12:08:02.607Z,5.33
2022-08-28T12:10:31.763Z,3.43
2022-08-28T12:13:03.411Z,4.57
2022-08-28T12:15:31.271Z,3.30
2022-08-28T12:18:03.349Z,3.27
2022-08-28T12:20:44.743Z,3.33
2022-08-28T12:23:30.117Z,4.33
2022-08-28T12:26:04.536Z,3.00
2022-08-28T12:28:39.490Z,3.57
2022-08-28T12:31:06.610Z,3.97
2022-08-28T12:34:03.460Z,3.40
2022-08-28T12:36:31.669Z,2.87
2022-08-28T12:38:59.157Z,4.07
2022-08-28T12:41:30.076Z,3.43
2022-08-28T12:43:59.502Z,5.63
2022-08-28T12:46:32.993Z,3.10
2022-08-28T12:49:25.611Z,4.00
2022-08-28T12:52:08.288Z,4.67
2022-08-28T12:54:35.612Z,3.50
2022-08-28T12:57:29.197Z,10.20
2022-08-28T13:00:09.181Z,2.60
2022-08-28T13:02:36.938Z,3.93
2022-08-28T13:05:08.574Z,3.00
2022-08-28T13:07:37.806Z,2.83
2022-08-28T13:10:20.429Z,4.43
2022-08-28T13:13:06.946Z,2.97
2022-08-28T13:15:52.269Z,4.23
2022-08-28T13:18:34.938Z,4.33
2022-08-28T13:21:33.253Z,3.07
2022-08-28T13:24:24.362Z,2.70
2022-08-28T13:27:00.851Z,4.70
2022-08-28T13:29:33.489Z,3.87
2022-08-28T13:32:19.256Z,4.13
2022-08-28T13:35:04.798Z,3.33
2022-08-28T13:37:53.882Z,3.33
2022-08-28T13:40:55.746Z,3.30
2022-08-28T13:43:12.573Z,4.33
2022-08-28T13:45:43.949Z,2.70
2022-08-28T13:48:18.242Z,2.77
2022-08-28T13:50:48.680Z,2.87
2022-08-28T13:53:19.183Z,8.40
2022-08-28T13:55:48.881Z,8.90
2022-08-28T13:58:17.009Z,4.00
2022-08-28T14:00:47.300Z,3.13
2022-08-28T14:03:34.193Z,3.63
2022-08-28T14:06:12.453Z,3.73
2022-08-28T14:08:41.786Z,2.90
2022-08-28T14:11:12.919Z,4.00
2022-08-28T14:13:47.061Z,3.03
2022-08-28T14:16:26.641Z,2.57
2022-08-28T14:18:54.142Z,2.53
2022-08-28T14:21:24.828Z,2.57
2022-08-28T14:23:52.295Z,4.10
2022-08-28T14:26:19.624Z,3.00
2022-08-28T14:28:46.956Z,2.90
2022-08-28T14:31:15.032Z,3.07
2022-08-28T14:33:45.334Z,2.60
2022-08-28T14:36:18.791Z,9.10
2022-08-28T14:38:48.755Z,6.60
2022-08-28T14:41:17.756Z,6.77
2022-08-28T14:43:45.955Z,5.43
2022-08-28T14:46:29.854Z,3.37
2022-08-28T14:48:59.847Z,2.63
2022-08-28T14:51:27.731Z,3.83
2022-08-28T14:53:55.132Z,2.60
2022-08-28T14:56:22.799Z,3.13
2022-08-28T14:58:50.120Z,5.77
2022-08-28T15:01:43.878Z,2.57
2022-08-28T15:04:15.011Z,6.40
2022-08-28T15:06:45.449Z,4.03
2022-08-28T15:09:15.510Z,2.63
2022-08-28T15:11:44.452Z,2.97
2022-08-28T15:14:13.531Z,2.67
2022-08-28T15:16:44.200Z,3.80
2022-08-28T15:19:16.151Z,2.40
2022-08-28T15:21:48.337Z,2.50
2022-08-28T15:24:19.042Z,4.33
2022-08-28T15:26:47.281Z,3.53
2022-08-28T15:29:15.319Z,2.60
2022-08-28T15:31:48.774Z,2.53
2022-08-28T15:34:22.501Z,3.47
2022-08-28T15:36:56.047Z,5.07
2022-08-28T15:39:43.950Z,2.87
2022-08-28T15:42:11.736Z,3.30
2022-08-28T15:44:39.344Z,2.77
2022-08-28T15:47:07.577Z,5.33
2022-08-28T15:49:46.801Z,3.70
2022-08-28T15:52:18.735Z,3.37
2022-08-28T15:54:46.953Z,2.60
2022-08-28T15:57:14.615Z,2.47
2022-08-28T15:59:49.858Z,3.67
2022-08-28T16:02:20.637Z,2.50
2022-08-28T16:04:48.859Z,2.43
2022-08-28T16:07:17.209Z,2.73
2022-08-28T16:09:44.917Z,3.10
2022-08-28T16:12:12.309Z,3.07
2022-08-28T16:14:42.324Z,2.67
2022-08-28T16:17:10.656Z,3.77
2022-08-28T16:19:42.403Z,2.43
2022-08-28T16:22:10.761Z,2.63
2022-08-28T16:24:38.076Z,2.40
2022-08-28T16:27:06.201Z,2.60
2022-08-28T16:29:35.971Z,4.00
2022-08-28T16:32:05.663Z,3.50
2022-08-28T16:34:35.569Z,2.97
2022-08-28T16:37:04.428Z,4.60
2022-08-28T16:39:32.136Z,2.87
2022-08-28T16:41:59.602Z,2.57
2022-08-28T16:44:27.231Z,2.40
2022-08-28T16:46:56.241Z,3.97
2022-08-28T16:49:24.788Z,3.40
2022-08-28T16:51:52.161Z,3.83
2022-08-28T16:54:21.657Z,3.00
2022-08-28T16:56:49.122Z,2.37
2022-08-28T16:59:18.480Z,2.50
2022-08-28T17:01:46.978Z,2.60
2022-08-28T17:04:23.234Z,2.60
2022-08-28T17:06:50.647Z,2.50
2022-08-28T17:09:21.088Z,3.70
2022-08-28T17:11:51.772Z,3.40
2022-08-28T17:14:21.229Z,2.80
2022-08-28T17:16:49.719Z,3.03
2022-08-28T17:19:17.900Z,3.40
2022-08-28T17:22:03.698Z,2.30
2022-08-28T17:24:31.274Z,2.40
2022-08-28T17:27:03.226Z,3.70
2022-08-28T17:29:33.001Z,3.43
2022-08-28T17:32:00.639Z,2.50
2022-08-28T17:34:30.238Z,2.57
2022-08-28T17:36:58.006Z,2.67
2022-08-28T17:39:25.858Z,3.50
2022-08-28T17:41:56.849Z,2.57
2022-08-28T17:44:24.235Z,2.70
2022-08-28T17:46:52.021Z,4.13
2022-08-28T17:49:19.542Z,4.23
2022-08-28T17:51:46.930Z,3.93
2022-08-28T17:54:21.640Z,3.00
2022-08-28T17:56:50.575Z,2.53
2022-08-28T17:59:22.070Z,3.40
2022-08-28T18:01:50.234Z,5.37
2022-08-28T18:04:23.955Z,4.40
2022-08-28T18:06:54.825Z,3.63
2022-08-28T18:09:25.068Z,2.27
2022-08-28T18:11:53.892Z,5.07
2022-08-28T18:14:22.055Z,6.73
2022-08-28T18:16:49.600Z,2.87
2022-08-28T18:19:17.237Z,3.77
2022-08-28T18:21:45.702Z,3.23
2022-08-28T18:24:13.474Z,2.50
2022-08-28T18:26:46.489Z,2.63
2022-08-28T18:29:15.236Z,2.50
2022-08-28T18:31:45.313Z,4.23
2022-08-28T18:34:13.181Z,5.07
2022-08-28T18:36:43.007Z,3.73
2022-08-28T18:39:10.891Z,4.07
2022-08-28T18:41:44.505Z,9.17
2022-08-28T18:44:15.510Z,5.07
2022-08-28T18:46:45.036Z,3.30
2022-08-28T18:49:15.842Z,3.93
2022-08-28T18:51:44.942Z,3.67
2022-08-28T18:54:23.662Z,4.03
2022-08-28T18:57:01.407Z,8.00
2022-08-28T18:59:33.483Z,4.27
2022-08-28T19:02:02.230Z,4.83
2022-08-28T19:04:29.647Z,4.70
2022-08-28T19:06:56.918Z,3.37
2022-08-28T19:09:30.336Z,2.87
2022-08-28T19:11:59.623Z,3.83
2022-08-28T19:14:27.506Z,4.67
2022-08-28T19:16:55.890Z,5.00
2022-08-28T19:19:23.523Z,2.60
2022-08-28T19:21:51.736Z,3.93
2022-08-28T19:24:19.533Z,3.00
2022-08-28T19:26:48.921Z,3.07
2022-08-28T19:29:16.806Z,2.20
2022-08-28T19:31:44.352Z,3.73
2022-08-28T19:34:13.159Z,2.57
2022-08-28T19:36:41.124Z,2.63
2022-08-28T19:39:08.400Z,2.20
2022-08-28T19:41:38.855Z,3.67
2022-08-28T19:44:06.893Z,2.17
2022-08-28T19:46:39.204Z,2.87
2022-08-28T19:49:08.909Z,4.97
2022-08-28T19:51:40.649Z,2.37
2022-08-28T19:54:11.654Z,2.93
2022-08-28T19:56:38.915Z,2.97
2022-08-28T19:59:07.761Z,2.77
2022-08-28T20:01:40.756Z,3.60
2022-08-28T20:04:09.564Z,3.47
2022-08-28T20:06:37.684Z,2.77
2022-08-28T20:09:09.425Z,2.73
2022-08-28T20:11:39.687Z,3.07
2022-08-28T20:14:07.255Z,3.73
2022-08-28T20:16:39.485Z,2.97
2022-08-28T20:19:08.262Z,3.77
2022-08-28T20:21:38.380Z,2.63
2022-08-28T20:24:08.882Z,3.27
2022-08-28T20:26:36.488Z,2.37
2022-08-28T20:29:05.182Z,1.90
2022-08-28T20:31:33.054Z,3.80
2022-08-28T20:34:00.762Z,3.73
2022-08-28T20:36:27.993Z,2.47
2022-08-28T20:38:55.701Z,3.10
2022-08-28T20:41:23.134Z,4.30
2022-08-28T20:43:50.373Z,1.00
2022-08-28T20:46:18.406Z,2.27
2022-08-28T20:48:46.098Z,2.93
2022-08-28T20:51:13.661Z,3.43
2022-08-28T20:53:41.041Z,1.77
2022-08-28T20:56:10.752Z,2.50
2022-08-28T20:58:38.171Z,2.00
2022-08-28T21:01:05.897Z,3.93
2022-08-28T21:03:33.644Z,3.10
2022-08-28T21:06:01.054Z,1.83
2022-08-28T21:08:28.784Z,1.90
2022-08-28T21:10:56.127Z,1.77
2022-08-28T21:13:23.971Z,2.70
2022-08-28T21:15:51.233Z,3.20
2022-08-28T21:18:18.884Z,1.93
2022-08-28T21:20:46.538Z,2.23
2022-08-28T21:23:14.325Z,2.43
2022-08-28T21:25:42.374Z,3.80
2022-08-28T21:28:09.790Z,2.40
2022-08-28T21:30:37.793Z,1.80
2022-08-28T21:33:05.615Z,2.47
2022-08-28T21:35:33.185Z,1.27
2022-08-28T21:38:00.592Z,2.33
2022-08-28T21:40:28.995Z,2.20
2022-08-28T21:42:56.396Z,3.13
2022-08-28T21:45:23.810Z,4.67
2022-08-28T21:47:52.811Z,4.30
2022-08-28T21:50:21.103Z,2.67
2022-08-28T21:52:48.456Z,1.60
2022-08-28T21:55:18.702Z,3.53
2022-08-28T21:57:46.484Z,1.83
2022-08-28T22:00:19.916Z,2.13
2022-08-28T22:02:48.000Z,2.17
2022-08-28T22:05:16.727Z,1.50
2022-08-28T22:07:45.267Z,2.10
2022-08-28T22:10:12.815Z,1.20
2022-08-28T22:12:39.968Z,2.60
2022-08-28T22:15:07.475Z,3.23
2022-08-28T22:17:35.174Z,1.93
2022-08-28T22:20:02.801Z,1.53
2022-08-28T22:22:48.454Z,2.73
2022-08-28T22:25:16.024Z,3.30
2022-08-28T22:27:43.386Z,3.43
2022-08-28T22:30:11.250Z,1.63
2022-08-28T22:32:39.337Z,4.13
2022-08-28T22:35:08.159Z,1.60
2022-08-28T22:37:36.297Z,3.23
2022-08-28T22:40:05.487Z,4.67
2022-08-28T22:42:40.337Z,1.77
2022-08-28T22:45:07.923Z,3.10
2022-08-28T22:47:36.482Z,2.27
2022-08-28T22:50:04.927Z,1.53
2022-08-28T22:52:32.464Z,2.57
2022-08-28T22:54:59.785Z,4.83
2022-08-28T22:57:27.593Z,2.23
2022-08-28T22:59:54.922Z,2.30
2022-08-28T23:02:22.752Z,2.53
2022-08-28T23:04:55.195Z,2.80
2022-08-28T23:07:22.251Z,4.60
2022-08-28T23:09:49.555Z,2.57
2022-08-28T23:12:16.735Z,2.33
2022-08-28T23:14:48.246Z,2.67
2022-08-28T23:17:19.164Z,3.97
2022-08-28T23:19:48.426Z,2.37
2022-08-28T23:22:17.729Z,2.80
2022-08-28T23:24:46.732Z,4.27
2022-08-28T23:27:34.676Z,2.93
2022-08-28T23:30:01.365Z,1.80
2022-08-28T23:32:28.978Z,3.67
2022-08-28T23:34:56.175Z,3.37
2022-08-28T23:37:23.365Z,2.57
2022-08-28T23:39:50.614Z,1.97
2022-08-28T23:42:18.054Z,2.73
2022-08-28T23:44:45.589Z,3.37
2022-08-28T23:47:13.149Z,3.50
2022-08-28T23:49:42.761Z,2.37
2022-08-28T23:52:10.295Z,1.90
2022-08-28T23:54:39.956Z,5.00
2022-08-28T23:57:08.538Z,1.53
2022-08-28T23:59:39.726Z,2.40
